Tiempo atmosférico en la estación meteorológica de Luzaide/Valcarlos, Navarra (334 m.)



Fecha
DESCASC
Temp. máxima en grados centígrados (hora)
DESCASC
Temp. mínima en grados centígrados (hora)
DESCASC
Temp. media en grados centígrados
DESCASC
Racha de viento máxima en m/sg (hora)
DESCASC
Velocidad máxima media en intervalos de 10 minutos(hora)
DESCASC
Precipitaciones diarias en mm
DESCASC
Precipitaciones de 00:00 a 06:00 en mm
DESCASC
Precipitaciones de 06:00 a 12:00 en mm
DESCASC
Precipitaciones de 12:00 a 18:00 en mm
DESCASC
Precipitaciones de 18:00 a 24:00 en mm
DESCASC
24-01-2021 10.6 (16:30) 4.1 (08:20) 7.4 11.39 (02:00) 4.44 (01:10) 10.4 5.4 3.2 0.6 1.2
23-01-2021 10.7 (12:00) 6.2 (00:50) 8.4 14.72 (18:40) 6.94 (18:00) 4.6 0 0 0.2 4.4
22-01-2021 13.7 (03:50) 4.6 (16:20) 9.1 14.72 (06:50) 5.83 (00:50) 40.8 3.2 16.4 15 6.2
21-01-2021 14.2 (13:00) 10.5 (00:00) 12.3 14.17 (11:40) 6.94 (13:50) 1.4 0 0 1.4 0
20-01-2021 13 (13:10) 10.3 (00:00) 11.7 22.5 (06:00) 11.11 (04:40) 0 0 0 0 0
19-01-2021 16 (13:30) 1.7 (00:00) 8.9 15.83 (23:30) 6.94 (22:30) 0 0 0 0 0
18-01-2021 9.4 (14:30) 1.7 (00:00) 5.5 6.67 (13:20) 4.72 (13:30) 0 0 0 0 0
17-01-2021 11.3 (14:50) 5.7 (00:00) 8.5 7.5 (15:10) 4.44 (15:10) 4.6 0 1 2.2 1.4
16-01-2021 11.3 (14:00) 3.2 (00:00) 7.3 6.11 (01:20) 3.89 (01:10) 0 0 0 0 0
15-01-2021 8.1 (13:00) 5.1 (00:00) 6.6 8.33 (13:40) 4.44 (18:20) 10 3.2 1.6 2.8 2.4
14-01-2021 8.4 (15:00) 5.2 (07:50) 6.8 4.44 (21:40) 2.22 (21:40) 2.4 0.8 0 0.2 1.4
13-01-2021 8 (13:50) 3.2 (00:00) 5.6 4.72 (15:00) 3.06 (13:10) 1.2 0 0.4 0 0.8
12-01-2021 4.2 (14:00) -1.3 (-00:0) 1.4 2.78 (20:40) 1.39 (20:40) 0 0 0 0 0
11-01-2021 5.1 (13:10) -2.4 (-00:0) 1.3 5.28 (15:30) 2.5 (15:10) 0 0 0 0 0
10-01-2021 0.3 (14:20) -1.1 (23:10) -0.4 3.89 (04:00) 2.22 (04:00) 2.6 1.2 0.4 1 0
09-01-2021 -0.1 (12:10) -1.2 (-00:0) -0.7 4.44 (15:40) 2.5 (15:40) 5.2 0 0.2 3.6 1.4
08-01-2021 2.9 (15:30) -4.9 (-00:0) -1 5.28 (16:20) 3.06 (17:00) 0 0 0 0 0
07-01-2021 4.6 (12:20) -3.6 (-00:0) 0.5 7.22 (13:00) 4.44 (13:10) 0 0 0 0 0
06-01-2021 6.6 (13:30) -2.7 (-00:0) 1.9 4.72 (00:30) 3.06 (13:50) 0 0 0 0 0
05-01-2021 3 (12:40) 0.2 (00:00) 1.6 4.72 (17:50) 2.5 (18:30) 2 1 1 0 0
04-01-2021 4.9 (13:40) 0.9 (00:00) 2.9 10 (11:10) 4.17 (13:10) 3.8 0.2 0.6 1.8 1.2
03-01-2021 7.1 (13:00) -2.4 (-00:0) 2.3 6.67 (16:50) 3.33 (13:50) 1 0 0 0.4 0.6
02-01-2021 3.2 (01:40) -1.7 (-00:0) 0.8 7.22 (09:40) 3.89 (10:50) 3.2 2.2 1 0 0
01-01-2021 8.4 (14:00) 2.1 (00:00) 5.2 8.33 (16:10) 3.06 (17:20) 8.8 6.8 1.4 0.4 0.2
31-12-2020 7.7 (11:20) 4.4 (00:00) 6 14.44 (14:00) 5.83 (09:40) 4.4 0 0 1.8 2.6
30-12-2020 6.8 (13:30) 3.1 (00:00) 5 8.61 (21:00) 3.89 (21:30) 18.2 6.6 7.8 3.6 0.2
29-12-2020 7.8 (12:20) 3.3 (00:00) 5.6 13.33 (01:40) 4.44 (00:10) 14.2 0.6 1.8 1.8 10
28-12-2020 7 (19:00) 3.8 (00:00) 5.4 12.78 (07:50) 5 (07:50) 37.2 18.2 3.8 10.2 5
27-12-2020 9.6 (15:40) 1.4 (00:00) 5.5 17.78 (14:30) 8.33 (13:50) 3.4 0 0 0 3.4
26-12-2020 5.2 (15:40) 1.9 (00:00) 3.5 4.72 (01:30) 3.06 (01:20) 0 0 0 0 0

Gráficas

Temp. máximas Temp. mínimas Temp. medias Precipitaciones Rachas de viento máximas Velocidades máximas media en intervalos de 10 minutos

Datos horarios

Fecha y hora oficial Temperatura (ºC) Velocidad del viento (km/h) Dirección del viento Racha (km/h) Dirección de racha Precipitación (mm) Presión (hPa) Tendencia (hPa) Humedad (%)
2021-01-24 23:00:00 7.3 0 Calma 9 Sudoeste 0.4 -- -- 93
2021-01-24 22:00:00 8.1 5 Sur 15 Noroeste 0.4 -- -- 89
2021-01-24 21:00:00 9.7 7 Sudoeste 19 Sudeste 0 -- -- 74
2021-01-24 20:00:00 9.7 12 Sur 24 Sudeste 0 -- -- 69
2021-01-24 19:00:00 9.3 8 Sur 24 Sudoeste 0.2 -- -- 76
2021-01-24 18:00:00 9.6 5 Sur 17 Sur 0 -- -- 71
2021-01-24 17:00:00 10.2 5 Sur 19 Sudeste 0 -- -- 71
2021-01-24 16:00:00 10.2 8 Sur 26 Sur 0 -- -- 67
2021-01-24 15:00:00 8.9 7 Sur 28 Sudeste 0.2 -- -- 77
2021-01-24 14:00:00 8.6 4 Este 18 Sudoeste 0.2 -- -- 85
2021-01-24 13:00:00 7.9 10 Sur 25 Sudoeste 0.2 -- -- 83
2021-01-24 12:00:00 7.2 4 Oeste 15 Sudoeste 0.8 -- -- 89
2021-01-24 11:00:00 6.2 4 Sur 12 Sur 0 -- -- 96
2021-01-24 10:00:00 4.9 7 Sudeste 13 Sudeste 0.4 -- -- 97
2021-01-24 09:00:00 4.3 0 Calma 7 Norte 1 -- -- 97
2021-01-24 08:00:00 4.3 4 Norte 6 Norte 0.8 -- -- 97
2021-01-24 07:00:00 4.4 4 Norte 7 Norte 0.2 -- -- 96
2021-01-24 06:00:00 4.6 4 Norte 8 Noroeste 1 -- -- 95
2021-01-24 05:00:00 4.8 3 Norte 25 Norte 1 -- -- 93
2021-01-24 04:00:00 5.9 6 Nordeste 32 Sur 0 -- -- 87
2021-01-24 03:00:00 10.1 12 Sudeste 31 Noroeste 0.4 -- -- 80
2021-01-24 02:00:00 9.8 13 Este 41 Sudeste 2.8 -- -- 82
2021-01-24 01:00:00 9.9 11 Sur 29 Sudeste 0.2 -- -- 80
2021-01-24 00:00:00 9.4 13 Sur 26 Sudoeste 0 -- -- 81
2021-01-23 23:00:00 8.2 7 Sur 15 Sudeste 2 -- -- 91
2021-01-23 22:00:00 9 8 Sur 22 Sudeste 2.2 -- -- 85
2021-01-23 21:00:00 10 9 Sur 33 Sur 0.2 -- -- 76
2021-01-23 20:00:00 10.3 16 Sur 42 Sur 0 -- -- 70
2021-01-23 19:00:00 9.8 19 Sur 53 Sur 0 -- -- 70
2021-01-23 18:00:00 9.7 25 Sur 45 Sur 0 -- -- 71
2021-01-23 17:00:00 8.6 15 Sur 53 Sur 0.2 -- -- 77
2021-01-23 16:00:00 9.7 12 Sur 30 Sur 0 -- -- 71
2021-01-23 15:00:00 9.2 17 Sur 41 Sudoeste 0 -- -- 72
2021-01-23 14:00:00 10 11 Sudoeste 41 Sudoeste 0 -- -- 66
2021-01-23 13:00:00 10 15 Sur 40 Sudoeste 0 -- -- 63
2021-01-23 12:00:00 10.7 18 Sur 39 Sur 0 -- -- 61
2021-01-23 11:00:00 9.4 16 Sudoeste 37 Sudoeste 0 -- -- 64
2021-01-23 10:00:00 9 17 Sur 36 Sur 0 -- -- 64
2021-01-23 09:00:00 8.4 14 Sur 35 Sudeste 0 -- -- 66
2021-01-23 08:00:00 7.9 18 Sur 34 Sudeste 0 -- -- 69
2021-01-23 07:00:00 7.9 19 Sur 44 Sudoeste 0 -- -- 67
2021-01-23 06:00:00 8 19 Sur 50 Sur 0 -- -- 67
2021-01-23 05:00:00 7.9 19 Sur 42 Sudoeste 0 -- -- 67
2021-01-23 04:00:00 7.4 14 Sur 34 Sur 0 -- -- 69
2021-01-23 03:00:00 7.1 13 Sur 33 Sur 0 -- -- 70
2021-01-23 02:00:00 6.5 9 Sur 23 Sudeste 0 -- -- 74
2021-01-23 01:00:00 6.2 6 Sur 15 Sur 0 -- -- 84
2021-01-23 00:00:00 6.7 8 Sur 32 Sudoeste 0 -- -- 76
2021-01-22 23:00:00 5.4 7 Sur 24 Oeste 0.8 -- -- 90
2021-01-22 22:00:00 5.5 4 Sudoeste 15 Sudoeste 1.2 -- -- 90
2021-01-22 21:00:00 5.1 11 Sur 20 Sudoeste 1.8 -- -- 89
2021-01-22 20:00:00 5.3 3 Sudoeste 12 Sur 1.6 -- -- 91
2021-01-22 19:00:00 5.3 5 Sudoeste 10 Sudoeste 0.8 -- -- 93
2021-01-22 18:00:00 5.5 6 Sur 26 Sur 1.4 -- -- 90
2021-01-22 17:00:00 4.8 6 Sur 16 Sudoeste 1 -- -- 92
2021-01-22 16:00:00 5 6 Sudeste 14 Sur 4.4 -- -- 90
2021-01-22 15:00:00 6.2 6 Sudeste 25 Sudeste 1.6 -- -- 86
2021-01-22 14:00:00 6.5 10 Sudeste 41 Norte 3.8 -- -- 93
2021-01-22 13:00:00 7.4 11 Sudeste 25 Norte 2.8 -- -- 87
2021-01-22 12:00:00 7.1 9 Nordeste 33 Sudoeste 3.2 -- -- 87
2021-01-22 11:00:00 8.3 10 Sur 33 Sur 1.6 -- -- 79
2021-01-22 10:00:00 7.2 11 Sur 24 Sudoeste 4.2 -- -- 87
2021-01-22 09:00:00 7.5 5 Sudoeste 27 Noroeste 6.4 -- -- 88
2021-01-22 08:00:00 11 14 Sur 42 Sur 0 -- -- 63
2021-01-22 07:00:00 10.8 17 Sur 53 Sudeste 1 -- -- 73
2021-01-22 06:00:00 11.8 14 Sudoeste 40 Sudoeste 3.2 -- -- 79
2021-01-22 05:00:00 13.1 12 Sudoeste 41 Sudoeste 0 -- -- 67
2021-01-22 04:00:00 13.6 12 Sur 44 Sur 0 -- -- 62
2021-01-22 03:00:00 13.3 13 Sudoeste 32 Sudoeste 0 -- -- 64
2021-01-22 02:00:00 13.1 18 Sudoeste 39 Sudoeste 0 -- -- 67
2021-01-22 01:00:00 13.2 16 Sudoeste 42 Sur 0 -- -- 65
2021-01-22 00:00:00 13.3 19 Sudoeste 41 Sur 0 -- -- 65
2021-01-21 23:00:00 13.5 17 Sudoeste 45 Sur 0 -- -- 62
2021-01-21 22:00:00 13.1 14 Sudoeste 40 Sudoeste 0 -- -- 65
2021-01-21 21:00:00 13.1 15 Sudoeste 39 Sur 0 -- -- 67
2021-01-21 20:00:00 12.9 22 Sudoeste 45 Sudoeste 0 -- -- 67
2021-01-21 19:00:00 12.5 20 Sudoeste 45 Sudoeste 0 -- -- 67
2021-01-21 18:00:00 12 21 Sudoeste 40 Sur 0 -- -- 71
2021-01-21 17:00:00 12.4 17 Sudoeste 50 Sudoeste 0 -- -- 70
2021-01-21 16:00:00 12.9 13 Sudoeste 36 Sudoeste 0.2 -- -- 67
2021-01-21 15:00:00 11.6 17 Sudoeste 46 Sur 0.8 -- -- 75
2021-01-21 14:00:00 12 18 Sudoeste 44 Sur 0.4 -- -- 70
2021-01-21 13:00:00 14.2 16 Sur 34 Sudeste 0 -- -- 54
2021-01-21 12:00:00 13.8 16 Sudoeste 51 Sur 0 -- -- 58
2021-01-21 11:00:00 13.2 13 Sudoeste 40 Sudoeste 0 -- -- 61
2021-01-21 10:00:00 12 17 Sur 32 Sudoeste 0 -- -- 65
2021-01-21 09:00:00 11.2 12 Sur 30 Sudeste 0 -- -- 68
2021-01-21 08:00:00 11.2 14 Sur 35 Sudoeste 0 -- -- 68
2021-01-21 07:00:00 10.9 11 Sudoeste 41 Sur 0 -- -- 69
2021-01-21 06:00:00 11.1 12 Sur 35 Sur 0 -- -- 69
2021-01-21 05:00:00 11.2 15 Sur 34 Sudoeste 0 -- -- 68
2021-01-21 04:00:00 10.7 16 Sudoeste 39 Sudoeste 0 -- -- 70
2021-01-21 03:00:00 10.8 18 Sur 32 Sudoeste 0 -- -- 70
2021-01-21 02:00:00 10.6 16 Sudoeste 44 Sur 0 -- -- 70
2021-01-21 01:00:00 10.6 19 Sudoeste 45 Sur 0 -- -- 70
2021-01-21 00:00:00 10.7 16 Sudoeste 49 Sudoeste 0 -- -- 67
2021-01-20 23:00:00 10.5 20 Sudoeste 54 Sudoeste 0 -- -- 66
2021-01-20 22:00:00 10.5 23 Sudoeste 47 Sudoeste 0 -- -- 66
2021-01-20 21:00:00 10.7 19 Sur 45 Sur 0 -- -- 65
2021-01-20 20:00:00 10.8 9 Sudoeste 44 Este 0 -- -- 63
2021-01-20 19:00:00 11.3 30 Sur 63 Sur 0 -- -- 60
2021-01-20 18:00:00 11.4 21 Sudoeste 63 Sur 0 -- -- 59
2021-01-20 17:00:00 11.8 34 Sur 71 Sudoeste 0 -- -- 57
2021-01-20 16:00:00 12 36 Sur 80 Sudoeste 0 -- -- 55
2021-01-20 15:00:00 12.2 11 Sudoeste 63 Sur 0 -- -- 56
2021-01-20 14:00:00 11.7 19 Sur 77 Sur 0 -- -- 57
2021-01-20 13:00:00 12.6 12 Sudoeste 48 Sur 0 -- -- 55
2021-01-20 12:00:00 12.1 10 Sudoeste 37 Sudoeste 0 -- -- 57
2021-01-20 11:00:00 11.4 16 Sudoeste 47 Sur 0 -- -- 55
2021-01-20 10:00:00 11.1 16 Sur 48 Sur 0 -- -- 51
2021-01-20 09:00:00 11.7 20 Sur 54 Sudoeste 0 -- -- 44
2021-01-20 08:00:00 11.9 26 Sudoeste 67 Sur 0 -- -- 42
2021-01-20 07:00:00 11.7 13 Sudoeste 67 Sur 0 -- -- 43
2021-01-20 06:00:00 12.4 31 Sur 81 Sur 0 -- -- 39
2021-01-20 05:00:00 12.7 34 Sur 79 Sudoeste 0 -- -- 37
2021-01-20 04:00:00 12.4 32 Sur 69 Sur 0 -- -- 38
2021-01-20 03:00:00 12.2 26 Sur 78 Sudoeste 0 -- -- 39
2021-01-20 02:00:00 12.5 30 Sur 72 Sudoeste 0 -- -- 40
2021-01-20 01:00:00 11.9 26 Sudoeste 58 Sur 0 -- -- 44
2021-01-20 00:00:00 11.8 23 Sudoeste 57 Sudoeste 0 -- -- 46
2021-01-19 23:00:00 12.3 23 Sudoeste 49 Sudoeste 0 -- -- 45
2021-01-19 22:00:00 12 21 Sudoeste 49 Sur 0 -- -- 48
2021-01-19 21:00:00 12.3 21 Sudoeste 48 Sudoeste 0 -- -- 48
2021-01-19 20:00:00 12.3 21 Sudoeste 41 Sudoeste 0 -- -- 46
2021-01-19 19:00:00 12.3 14 Sudoeste 39 Sur 0 -- -- 48
2021-01-19 18:00:00 12.8 16 Sur 36 Sur 0 -- -- 47
2021-01-19 17:00:00 13.3 16 Sur 38 Sur 0 -- -- 46
2021-01-19 16:00:00 15 19 Sur 42 Sudoeste 0 -- -- 43
2021-01-19 15:00:00 15.6 16 Sur 36 Sur 0 -- -- 42
2021-01-19 14:00:00 15.8 16 Sur 30 Sur 0 -- -- 42
2021-01-19 13:00:00 15.8 13 Sur 41 Sur 0 -- -- 43
2021-01-19 12:00:00 14.8 14 Sudoeste 34 Sur 0 -- -- 50
2021-01-19 11:00:00 12.7 12 Sur 27 Sur 0 -- -- 58
2021-01-19 10:00:00 9.8 5 Norte 15 Nordeste 0 -- -- 66
2021-01-19 09:00:00 9 3 Sudeste 12 Noroeste 0 -- -- 67
2021-01-19 08:00:00 8.7 3 Noroeste 11 Sudeste 0 -- -- 69
2021-01-19 07:00:00 9.1 3 Este 16 Sudoeste 0 -- -- 69
2021-01-19 06:00:00 9.1 3 Sudoeste 22 Sudoeste 0 -- -- 71
2021-01-19 05:00:00 9.3 9 Sur 26 Sudoeste 0 -- -- 70
2021-01-19 04:00:00 9.4 6 Sur 17 Sur 0 -- -- 71
2021-01-19 03:00:00 8.4 2 Sur 13 Sur 0 -- -- 71
2021-01-19 02:00:00 7.9 4 Sur 11 Sudoeste 0 -- -- 72
2021-01-19 01:00:00 4.1 5 Sur 11 Sur 0 -- -- 98
2021-01-19 00:00:00 1.8 4 Sur 6 Sur 0 -- -- 97
2021-01-18 23:00:00 2 2 Sudeste 8 Sur 0 -- -- 96
2021-01-18 22:00:00 2.8 2 Sur 10 Sur 0 -- -- 95
2021-01-18 21:00:00 3.5 4 Sur 8 Sur 0 -- -- 94
2021-01-18 20:00:00 4.9 3 Sur 5 Sur 0 -- -- 94
2021-01-18 19:00:00 6 0 Calma 5 Sudoeste 0 -- -- 92
2021-01-18 18:00:00 7.4 0 Calma 13 Norte 0 -- -- 89
2021-01-18 17:00:00 8.2 8 Norte 18 Norte 0 -- -- 86
2021-01-18 16:00:00 8.8 12 Norte 18 Norte 0 -- -- 84
2021-01-18 15:00:00 8.8 13 Norte 20 Norte 0 -- -- 84
2021-01-18 14:00:00 8.8 14 Norte 24 Norte 0 -- -- 84
2021-01-18 13:00:00 8.4 11 Norte 17 Norte 0 -- -- 85
2021-01-18 12:00:00 8.7 3 Sudeste 5 Sur 0 -- -- 91
2021-01-18 11:00:00 5.9 3 Sudeste 5 Sudeste 0 -- -- 100
2021-01-18 10:00:00 3.2 0 Calma 4 Sudoeste 0 -- -- 99
2021-01-18 09:00:00 3.8 0 Calma 4 Sur 0 -- -- 99
2021-01-18 08:00:00 4.4 0 Calma 5 Sur 0 -- -- 99
2021-01-18 07:00:00 4.2 0 Calma 4 Sur 0 -- -- 99
2021-01-18 06:00:00 4 3 Sur 5 Sur 0 -- -- 99
2021-01-18 05:00:00 3.8 0 Calma 9 Sur 0 -- -- 98
2021-01-18 04:00:00 3.9 3 Sur 9 Sur 0 -- -- 99
2021-01-18 03:00:00 4.3 2 Sur 6 Sur 0 -- -- 99
2021-01-18 02:00:00 5.4 3 Sur 5 Sur 0 -- -- 99
2021-01-18 01:00:00 6 0 Calma 12 Noroeste 0 -- -- 99
2021-01-18 00:00:00 6.2 6 Norte 10 Noroeste 0 -- -- 99
2021-01-17 23:00:00 6.3 4 Norte 12 Norte 0 -- -- 100
2021-01-17 22:00:00 6.5 4 Norte 12 Noroeste 0.4 -- -- 99
2021-01-17 21:00:00 6.8 7 Norte 12 Norte 0.4 -- -- 99
2021-01-17 20:00:00 7 5 Norte 10 Norte 0.4 -- -- 99
2021-01-17 19:00:00 7.3 4 Norte 15 Norte 0.2 -- -- 98
2021-01-17 18:00:00 7.5 11 Norte 22 Norte 0.8 -- -- 98
2021-01-17 17:00:00 8.7 14 Norte 21 Norte 0.2 -- -- 97
2021-01-17 16:00:00 9.5 4 Norte 27 Norte 0.2 -- -- 97
2021-01-17 15:00:00 11.3 6 Nordeste 14 Sur 0 -- -- 86
2021-01-17 14:00:00 11 0 Calma 11 Sudeste 0.6 -- -- 93
2021-01-17 13:00:00 10.5 8 Sur 22 Sudoeste 0.4 -- -- 90
2021-01-17 12:00:00 10.3 5 Sudoeste 16 Sur 0.6 -- -- 90
2021-01-17 11:00:00 9.7 6 Sur 11 Sudoeste 0 -- -- 92
2021-01-17 10:00:00 9.1 4 Sur 11 Sur 0 -- -- 91
2021-01-17 09:00:00 8.8 5 Sur 21 Sudoeste 0.4 -- -- 88
2021-01-17 08:00:00 9.6 8 Sur 19 Sur 0 -- -- 74
2021-01-17 07:00:00 9.2 4 Sudoeste 23 Sudoeste 0 -- -- 73
2021-01-17 06:00:00 8.9 4 Norte 15 Sur 0 -- -- 68
2021-01-17 05:00:00 7.1 4 Sur 10 Sur 0 -- -- 72
2021-01-17 04:00:00 7.3 5 Sur 16 Sudeste 0 -- -- 67
2021-01-17 03:00:00 6.6 3 Sur 12 Sur 0 -- -- 64
2021-01-17 02:00:00 6.5 6 Sur 15 Sudoeste 0 -- -- 64
2021-01-17 01:00:00 6.2 4 Sur 13 Sur 0 -- -- 66
2021-01-17 00:00:00 5.7 3 Sur 12 Sur 0 -- -- 69
2021-01-16 23:00:00 5 5 Sur 12 Sur 0 -- -- 75
2021-01-16 22:00:00 5.3 4 Sur 12 Sur 0 -- -- 73
2021-01-16 21:00:00 5.2 3 Sudeste 14 Sur 0 -- -- 71
2021-01-16 20:00:00 5.5 5 Sur 10 Sur 0 -- -- 73
2021-01-16 19:00:00 6.2 4 Sur 9 Sur 0 -- -- 79
2021-01-16 18:00:00 7.4 0 Calma 8 Norte 0 -- -- 79
2021-01-16 17:00:00 9.5 0 Calma 9 Norte 0 -- -- 69
2021-01-16 16:00:00 9.9 6 Norte 13 Norte 0 -- -- 64
2021-01-16 15:00:00 9.2 12 Norte 18 Norte 0 -- -- 67
2021-01-16 14:00:00 11.3 3 Sudeste 6 Sudeste 0 -- -- 53
2021-01-16 13:00:00 10 3 Sudeste 8 Sudeste 0 -- -- 62
2021-01-16 12:00:00 8 5 Sudeste 9 Sur 0 -- -- 73
2021-01-16 11:00:00 5.4 5 Sur 8 Sur 0 -- -- 98
2021-01-16 10:00:00 3.3 0 Calma 3 Sur 0 -- -- 98
2021-01-16 09:00:00 3.6 0 Calma 5 Sur 0 -- -- 98
2021-01-16 08:00:00 4 0 Calma 4 Sur 0 -- -- 97
2021-01-16 07:00:00 4.3 3 Norte 8 Noroeste 0 -- -- 96
2021-01-16 06:00:00 4.6 3 Norte 12 Norte 0 -- -- 94
2021-01-16 05:00:00 4.7 5 Norte 11 Noroeste 0 -- -- 95
2021-01-16 04:00:00 4.8 4 Noroeste 9 Norte 0 -- -- 96
2021-01-16 03:00:00 5 4 Norte 18 Noroeste 0 -- -- 96
2021-01-16 02:00:00 5 13 Norte 22 Norte 0 -- -- 97
2021-01-16 01:00:00 5.2 13 Norte 18 Norte 0 -- -- 96
2021-01-16 00:00:00 5.2 5 Norte 14 Noroeste 0 -- -- 95
2021-01-15 23:00:00 5.4 6 Norte 18 Noroeste 0 -- -- 95
2021-01-15 22:00:00 5.2 9 Norte 14 Norte 0.8 -- -- 98
2021-01-15 21:00:00 5.4 3 Norte 9 Norte 0 -- -- 97
2021-01-15 20:00:00 5.8 5 Norte 17 Noroeste 0 -- -- 93
2021-01-15 19:00:00 6.1 8 Noroeste 27 Noroeste 1.6 -- -- 93
2021-01-15 18:00:00 6.7 10 Norte 23 Norte 0.4 -- -- 92
2021-01-15 17:00:00 7.1 12 Norte 22 Norte 0 -- -- 90
2021-01-15 16:00:00 6.5 10 Norte 25 Norte 1 -- -- 96
2021-01-15 15:00:00 7.1 9 Norte 24 Norte 0.6 -- -- 92
2021-01-15 14:00:00 7.2 12 Norte 30 Norte 0.4 -- -- 91
2021-01-15 13:00:00 8.1 8 Nordeste 24 Norte 0.4 -- -- 84
2021-01-15 12:00:00 7.3 11 Norte 18 Noroeste 0.4 -- -- 95
2021-01-15 11:00:00 6.9 8 Norte 14 Norte 0.4 -- -- 98
2021-01-15 10:00:00 6.2 0 Calma 6 Sur 0 -- -- 99
2021-01-15 09:00:00 5.9 3 Sur 6 Sudoeste 0.6 -- -- 99
2021-01-15 08:00:00 6 0 Calma 5 Sudoeste 0 -- -- 99
2021-01-15 07:00:00 6.1 0 Calma 7 Norte 0.2 -- -- 99
2021-01-15 06:00:00 6.3 0 Calma 12 Noroeste 1 -- -- 99
2021-01-15 05:00:00 5.8 0 Calma 10 Sudoeste 0.4 -- -- 99
2021-01-15 04:00:00 5.6 0 Calma 6 Sur 0.8 -- -- 99
2021-01-15 03:00:00 5.5 3 Sur 6 Sur 1 -- -- 99
2021-01-15 02:00:00 5.5 2 Sudoeste 10 Sur 0 -- -- 98
2021-01-15 01:00:00 5.8 0 Calma 5 Oeste 0 -- -- 98
2021-01-15 00:00:00 6.8 3 Sur 10 Nordeste 0 -- -- 98
2021-01-14 23:00:00 7.3 4 Norte 13 Norte 0 -- -- 99
2021-01-14 22:00:00 7.2 3 Norte 16 Norte 0.4 -- -- 98
2021-01-14 21:00:00 6.8 3 Este 9 Sur 0.4 -- -- 98
2021-01-14 20:00:00 6.6 4 Sudoeste 8 Sur 0 -- -- 97
2021-01-14 19:00:00 6.8 4 Sur 8 Sur 0.6 -- -- 96
2021-01-14 18:00:00 7.3 2 Sudoeste 6 Norte 0.2 -- -- 93
2021-01-14 17:00:00 7.8 3 Norte 5 Norte 0 -- -- 91
2021-01-14 16:00:00 8.1 3 Norte 10 Noroeste 0 -- -- 86
2021-01-14 15:00:00 8.4 4 Norte 7 Norte 0 -- -- 93
2021-01-14 14:00:00 7.9 0 Calma 4 Noroeste 0 -- -- 99
2021-01-14 13:00:00 7.2 0 Calma 3 Norte 0 -- -- 100
2021-01-14 12:00:00 6.4 0 Calma 4 Sudoeste 0 -- -- 100
2021-01-14 11:00:00 5.9 0 Calma 6 Sudoeste 0 -- -- 100
2021-01-14 10:00:00 5.6 0 Calma 6 Sur 0 -- -- 100
2021-01-14 09:00:00 5.4 2 Sur 5 Sudeste 0 -- -- 100
2021-01-14 08:00:00 5.3 2 Sudoeste 4 Sur 0 -- -- 100
2021-01-14 07:00:00 5.4 0 Calma 4 Sur 0 -- -- 100
2021-01-14 06:00:00 5.3 0 Calma 3 Sudoeste 0.4 -- -- 100
2021-01-14 05:00:00 5.4 2 Sur 5 Sudoeste 0 -- -- 100
2021-01-14 04:00:00 5.4 0 Calma 4 Sudoeste 0.2 -- -- 99
2021-01-14 03:00:00 5.5 0 Calma 3 Sudoeste 0 -- -- 99
2021-01-14 02:00:00 5.6 0 Calma 4 Sur 0 -- -- 99
2021-01-14 01:00:00 5.7 3 Sur 4 Sur 0.2 -- -- 99
2021-01-14 00:00:00 5.8 0 Calma 4 Sudoeste 0.6 -- -- 99
2021-01-13 23:00:00 5.8 0 Calma 3 Noroeste 0.2 -- -- 99
2021-01-13 22:00:00 6 0 Calma 3 Sudeste 0 -- -- 98
2021-01-13 21:00:00 6.2 0 Calma 2 Sur 0 -- -- 98
2021-01-13 20:00:00 6.4 0 Calma 3 Norte 0 -- -- 98
2021-01-13 19:00:00 6.9 0 Calma 6 Norte 0 -- -- 97
2021-01-13 18:00:00 7.3 4 Norte 13 Norte 0 -- -- 96
2021-01-13 17:00:00 7.6 7 Norte 13 Norte 0 -- -- 95
2021-01-13 16:00:00 7.7 6 Norte 14 Norte 0 -- -- 95
2021-01-13 15:00:00 7.5 10 Norte 17 Norte 0 -- -- 96
2021-01-13 14:00:00 7.9 9 Norte 15 Norte 0 -- -- 94
2021-01-13 13:00:00 7.7 10 Norte 16 Norte 0 -- -- 98
2021-01-13 12:00:00 7 0 Calma 3 Sur 0.2 -- -- 100
2021-01-13 11:00:00 5.8 0 Calma 3 Sur 0 -- -- 100
2021-01-13 10:00:00 4.5 2 Sur 6 Sur 0 -- -- 100
2021-01-13 09:00:00 3.9 0 Calma 4 Sur 0 -- -- 99
2021-01-13 08:00:00 3.8 0 Calma 5 Sur 0 -- -- 99
2021-01-13 07:00:00 3.8 0 Calma 4 Sur 0.2 -- -- 99
2021-01-13 06:00:00 3.8 3 Sudoeste 5 Sur 0 -- -- 99
2021-01-13 05:00:00 3.7 4 Sur 6 Sur 0 -- -- 99
2021-01-13 04:00:00 3.7 2 Sur 8 Sur 0 -- -- 99
2021-01-13 03:00:00 3.7 3 Sur 6 Sudoeste 0 -- -- 99
2021-01-13 02:00:00 3.5 0 Calma 8 Sur 0 -- -- 98
2021-01-13 01:00:00 3.4 0 Calma 8 Sur 0 -- -- 98
2021-01-13 00:00:00 3.2 3 Sur 6 Sudoeste 0 -- -- 98
2021-01-12 23:00:00 3.1 2 Sur 7 Sur 0 -- -- 97
2021-01-12 22:00:00 3 3 Sur 8 Sur 0 -- -- 96
2021-01-12 21:00:00 3 3 Sur 10 Sur 0 -- -- 95
2021-01-12 20:00:00 3 0 Calma 6 Sur 0 -- -- 94
2021-01-12 19:00:00 2.9 2 Sur 6 Sur 0 -- -- 93
2021-01-12 18:00:00 3.2 2 Sur 7 Sur 0 -- -- 92
2021-01-12 17:00:00 3.7 0 Calma 6 Sur 0 -- -- 91
2021-01-12 16:00:00 3.9 3 Sur 7 Sur 0 -- -- 92
2021-01-12 15:00:00 3.9 3 Sur 6 Sur 0 -- -- 90
2021-01-12 14:00:00 4.2 0 Calma 5 Sur 0 -- -- 90
2021-01-12 13:00:00 3.5 0 Calma 6 Sur 0 -- -- 93
2021-01-12 12:00:00 2.9 3 Sur 5 Sur 0 -- -- 97
2021-01-12 11:00:00 1.8 3 Sur 6 Sudoeste 0 -- -- 98
2021-01-12 10:00:00 0.7 0 Calma 5 Sur 0 -- -- 98
2021-01-12 09:00:00 0.3 0 Calma 4 Sudoeste 0 -- -- 98
2021-01-12 08:00:00 0.1 2 Sur 4 Sudoeste 0 -- -- 98
2021-01-12 07:00:00 0.1 0 Calma 2 Sudoeste 0 -- -- 98
2021-01-12 06:00:00 -0.1 0 Calma 3 Sur 0 -- -- 98
2021-01-12 05:00:00 -0.2 0 Calma 3 Oeste 0 -- -- 97
2021-01-12 04:00:00 -0.3 0 Calma 4 Sur 0 -- -- 97
2021-01-12 03:00:00 -0.5 0 Calma 3 Sur 0 -- -- 97
2021-01-12 02:00:00 -1 2 Sur 3 Sur 0 -- -- 97
2021-01-12 01:00:00 -1.3 2 Sur 5 Sur 0 -- -- 96
2021-01-12 00:00:00 -1.1 3 Sur 4 Sudoeste 0 -- -- 96
2021-01-11 23:00:00 -1.2 0 Calma 6 Sur 0 -- -- 95
2021-01-11 22:00:00 -1.6 0 Calma 4 Sur 0 -- -- 95
2021-01-11 21:00:00 -2.3 0 Calma 4 Sur 0 -- -- 94
2021-01-11 20:00:00 -1.9 0 Calma 4 Sur 0 -- -- 92
2021-01-11 19:00:00 -1.2 0 Calma 4 Sur 0 -- -- 91
2021-01-11 18:00:00 0 0 Calma 4 Sur 0 -- -- 86
2021-01-11 17:00:00 1.8 0 Calma 12 Norte 0 -- -- 79
2021-01-11 16:00:00 2.9 5 Norte 19 Norte 0 -- -- 70
2021-01-11 15:00:00 3.3 5 Nordeste 14 Nordeste 0 -- -- 70
2021-01-11 14:00:00 3.8 4 Nordeste 8 Sudeste 0 -- -- 68
2021-01-11 13:00:00 4.9 4 Sudeste 9 Sudeste 0 -- -- 67
2021-01-11 12:00:00 3.5 4 Sudeste 10 Norte 0 -- -- 77
2021-01-11 11:00:00 0.5 3 Norte 8 Noroeste 0 -- -- 97
2021-01-11 10:00:00 -0.3 0 Calma 3 Sudoeste 0 -- -- 98
2021-01-11 09:00:00 -0.8 0 Calma 6 Noroeste 0 -- -- 98
2021-01-11 08:00:00 -0.8 3 Norte 8 Noroeste 0 -- -- 98
2021-01-11 07:00:00 -1 3 Norte 7 Norte 0 -- -- 98
2021-01-11 06:00:00 -1.2 2 Norte 4 Norte 0 -- -- 98
2021-01-11 05:00:00 -1.2 3 Norte 5 Sudoeste 0 -- -- 97
2021-01-11 04:00:00 -1.2 0 Calma 5 Noroeste 0 -- -- 97
2021-01-11 03:00:00 -1.1 0 Calma 2 Sudoeste 0 -- -- 97
2021-01-11 02:00:00 -1.2 0 Calma 3 Sudeste 0 -- -- 97
2021-01-11 01:00:00 -1.1 0 Calma 4 Sudoeste 0 -- -- 97
2021-01-11 00:00:00 -1.1 0 Calma 4 Sudoeste 0 -- -- 97
2021-01-10 23:00:00 -1 0 Calma 3 Oeste 0 -- -- 96
2021-01-10 22:00:00 -0.8 0 Calma 6 Norte 0 -- -- 96
2021-01-10 21:00:00 -0.6 3 Sudeste 8 Sur 0 -- -- 96
2021-01-10 20:00:00 -0.5 6 Norte 11 Norte 0 -- -- 97
2021-01-10 19:00:00 -0.3 3 Norte 9 Norte 0 -- -- 96
2021-01-10 18:00:00 -0.2 5 Norte 10 Noroeste 0 -- -- 95
2021-01-10 17:00:00 -0.1 6 Norte 11 Noroeste 0 -- -- 95
2021-01-10 16:00:00 -0.2 7 Norte 11 Norte 0 -- -- 95
2021-01-10 15:00:00 0 8 Norte 13 Norte 0 -- -- 96
2021-01-10 14:00:00 0.1 2 Norte 9 Norte 0.6 -- -- 98
2021-01-10 13:00:00 -0.2 5 Norte 10 Norte 0.4 -- -- 98
2021-01-10 12:00:00 -0.3 5 Norte 9 Norte 0.2 -- -- 99
2021-01-10 11:00:00 -0.4 6 Norte 8 Norte 0 -- -- 99
2021-01-10 10:00:00 -0.7 5 Norte 10 Norte 0 -- -- 99
2021-01-10 09:00:00 -0.7 5 Norte 8 Noroeste 0 -- -- 99
2021-01-10 08:00:00 -0.7 0 Calma 5 Norte 0 -- -- 99
2021-01-10 07:00:00 -0.7 2 Noroeste 9 Noroeste 0.2 -- -- 99
2021-01-10 06:00:00 -0.6 5 Norte 11 Noroeste 0.2 -- -- 99
2021-01-10 05:00:00 -0.5 4 Norte 12 Norte 0.2 -- -- 99
2021-01-10 04:00:00 -0.4 8 Norte 14 Norte 0.2 -- -- 99
2021-01-10 03:00:00 -0.4 5 Norte 10 Noroeste 0.4 -- -- 99
2021-01-10 02:00:00 -0.4 5 Norte 9 Norte 0 -- -- 99
2021-01-10 01:00:00 -0.5 3 Norte 8 Norte 0.2 -- -- 99
2021-01-10 00:00:00 -0.5 4 Norte 8 Norte 0 -- -- 98
2021-01-09 23:00:00 -0.5 5 Norte 8 Norte 0.4 -- -- 98
2021-01-09 22:00:00 -0.5 5 Norte 12 Noroeste 0 -- -- 98
2021-01-09 21:00:00 -0.5 5 Norte 10 Noroeste 0.2 -- -- 98
2021-01-09 20:00:00 -0.5 4 Norte 10 Norte 0.6 -- -- 98
2021-01-09 19:00:00 -0.5 5 Norte 12 Noroeste 0.2 -- -- 98
2021-01-09 18:00:00 -0.5 5 Norte 10 Noroeste 0.8 -- -- 97
2021-01-09 17:00:00 -0.5 5 Norte 12 Noroeste 1.2 -- -- 97
2021-01-09 16:00:00 -0.5 6 Norte 16 Norte 0.4 -- -- 97
2021-01-09 15:00:00 -0.4 7 Norte 15 Norte 0.4 -- -- 97
2021-01-09 14:00:00 -0.3 6 Norte 12 Norte 0.4 -- -- 97
2021-01-09 13:00:00 -0.3 7 Norte 12 Norte 0.4 -- -- 96
2021-01-09 12:00:00 -0.2 5 Norte 10 Norte 0.2 -- -- 97
2021-01-09 11:00:00 -0.6 4 Norte 8 Norte 0 -- -- 97
2021-01-09 10:00:00 -1 6 Norte 11 Norte 0 -- -- 97
2021-01-09 09:00:00 -1.1 3 Norte 5 Norte 0 -- -- 97
2021-01-09 08:00:00 -1.1 0 Calma 2 Sur 0 -- -- 97
2021-01-09 07:00:00 -1.1 0 Calma 6 Noroeste 0 -- -- 96
2021-01-09 06:00:00 -1 3 Norte 5 Norte 0 -- -- 96
2021-01-09 05:00:00 -1 0 Calma 5 Norte 0 -- -- 95
2021-01-09 04:00:00 -0.9 0 Calma 8 Noroeste 0 -- -- 95
2021-01-09 03:00:00 -0.9 3 Noroeste 6 Noroeste 0 -- -- 96
2021-01-09 02:00:00 -0.6 0 Calma -- -- 0 -- -- 95
2021-01-09 01:00:00 -0.7 0 Calma -- -- 0 -- -- 95
2021-01-09 00:00:00 -0.9 0 Calma -- -- 0 -- -- 95
2021-01-08 23:00:00 -0.8 0 Calma 4 Norte 0 -- -- 94
2021-01-08 22:00:00 -0.7 0 Calma 4 Sur 0 -- -- 93
2021-01-08 21:00:00 -0.4 0 Calma 4 Norte 0 -- -- 91
2021-01-08 20:00:00 0 0 Calma 9 Norte 0 -- -- 89
2021-01-08 19:00:00 0.6 4 Noroeste 9 Norte 0 -- -- 84
2021-01-08 18:00:00 0.9 4 Noroeste 14 Norte 0 -- -- 81
2021-01-08 17:00:00 1.6 11 Norte 19 Norte 0 -- -- 76
2021-01-08 16:00:00 2.5 9 Norte 18 Norte 0 -- -- 68
2021-01-08 15:00:00 2.8 10 Norte 17 Norte 0 -- -- 69
2021-01-08 14:00:00 2.1 7 Norte 13 Nordeste 0 -- -- 72
2021-01-08 13:00:00 1.7 8 Nordeste 13 Nordeste 0 -- -- 74
2021-01-08 12:00:00 2.2 2 Este 5 Sur 0 -- -- 84
2021-01-08 11:00:00 -1 2 Sur 5 Sur 0 -- -- 99
2021-01-08 10:00:00 -3.7 0 Calma 3 Sur 0 -- -- 97
2021-01-08 09:00:00 -4.8 0 Calma 4 Sur 0 -- -- 97
2021-01-08 08:00:00 -4.8 0 Calma 4 Sudoeste 0 -- -- 96
2021-01-08 07:00:00 -4.4 0 Calma 3 Sudoeste 0 -- -- 96
2021-01-08 06:00:00 -4.2 0 Calma 4 Sur 0 -- -- 96
2021-01-08 05:00:00 -4 0 Calma 3 Sur 0 -- -- 96
2021-01-08 04:00:00 -3.6 0 Calma 3 Sudoeste 0 -- -- 96
2021-01-08 03:00:00 -3.3 0 Calma 2 Sur 0 -- -- 95
2021-01-08 02:00:00 -2.7 0 Calma 2 Sudoeste 0 -- -- 95
2021-01-08 01:00:00 -2.2 0 Calma 3 Norte 0 -- -- 95
2021-01-08 00:00:00 -1.6 0 Calma 3 Oeste 0 -- -- 94
2021-01-07 23:00:00 -0.8 0 Calma 6 Noroeste 0 -- -- 91
2021-01-07 22:00:00 0.2 4 Norte 6 Noroeste 0 -- -- 89
2021-01-07 21:00:00 0.7 0 Calma 5 Norte 0 -- -- 87
2021-01-07 20:00:00 0.8 0 Calma 4 Norte 0 -- -- 85
2021-01-07 19:00:00 1.1 0 Calma 11 Norte 0 -- -- 81
2021-01-07 18:00:00 1.4 8 Norte 15 Norte 0 -- -- 80
2021-01-07 17:00:00 1.8 8 Norte 17 Noroeste 0 -- -- 78
2021-01-07 16:00:00 2.4 10 Norte 19 Norte 0 -- -- 76
2021-01-07 15:00:00 3 12 Norte 20 Norte 0 -- -- 74
2021-01-07 14:00:00 2.4 14 Norte 24 Norte 0 -- -- 76
2021-01-07 13:00:00 1.8 15 Norte 26 Norte 0 -- -- 75
2021-01-07 12:00:00 3.4 3 Sudeste 9 Sudoeste 0 -- -- 80
2021-01-07 11:00:00 -0.4 0 Calma 4 Sur 0 -- -- 96
2021-01-07 10:00:00 -2.8 0 Calma 4 Sur 0 -- -- 95
2021-01-07 09:00:00 -3.5 0 Calma 4 Sudoeste 0 -- -- 94
2021-01-07 08:00:00 -3.1 0 Calma 6 Sur 0 -- -- 92
2021-01-07 07:00:00 -2.8 3 Sur 4 Sudoeste 0 -- -- 93
2021-01-07 06:00:00 -2.9 0 Calma 4 Sur 0 -- -- 94
2021-01-07 05:00:00 -2.7 0 Calma 5 Sur 0 -- -- 94
2021-01-07 04:00:00 -2.5 0 Calma 4 Sur 0 -- -- 93
2021-01-07 03:00:00 -2.3 2 Sur 6 Sur 0 -- -- 94
2021-01-07 02:00:00 -2.4 0 Calma 5 Sur 0 -- -- 94
2021-01-07 01:00:00 -2.3 0 Calma 5 Sudoeste 0 -- -- 94
2021-01-07 00:00:00 -1.8 2 Sur 8 Sur 0 -- -- 94
2021-01-06 23:00:00 -1.7 3 Sur 8 Norte 0 -- -- 94
2021-01-06 22:00:00 -1.1 0 Calma 5 Sur 0 -- -- 93
2021-01-06 21:00:00 -0.7 2 Sur 5 Sur 0 -- -- 92
2021-01-06 20:00:00 -0.3 2 Sur 5 Sur 0 -- -- 91
2021-01-06 19:00:00 0.8 0 Calma 6 Sur 0 -- -- 87
2021-01-06 18:00:00 2.1 3 Sur 8 Sur 0 -- -- 82
2021-01-06 17:00:00 4 0 Calma 14 Norte 0 -- -- 71
2021-01-06 16:00:00 5.3 9 Norte 14 Norte 0 -- -- 59
2021-01-06 15:00:00 5.3 6 Norte 16 Norte 0 -- -- 62
2021-01-06 14:00:00 4.9 10 Norte 15 Norte 0 -- -- 63
2021-01-06 13:00:00 5.8 5 Sur 8 Sur 0 -- -- 64
2021-01-06 12:00:00 3.6 4 Sur 9 Sur 0 -- -- 74
2021-01-06 11:00:00 0.4 2 Sur 6 Sur 0 -- -- 96
2021-01-06 10:00:00 -2.5 0 Calma 5 Sudoeste 0 -- -- 93
2021-01-06 09:00:00 -2.6 0 Calma 8 Sur 0 -- -- 92
2021-01-06 08:00:00 -2.2 3 Sur 9 Sur 0 -- -- 91
2021-01-06 07:00:00 -2.2 2 Sur 9 Sudoeste 0 -- -- 92
2021-01-06 06:00:00 -1.9 0 Calma 9 Sur 0 -- -- 92
2021-01-06 05:00:00 -1.5 3 Sur 8 Sur 0 -- -- 92
2021-01-06 04:00:00 -1.1 2 Sur 5 Sur 0 -- -- 92
2021-01-06 03:00:00 -0.1 3 Sur 9 Noroeste 0 -- -- 90
2021-01-06 02:00:00 0.3 6 Norte 13 Norte 0 -- -- 89
2021-01-06 01:00:00 0.6 10 Norte 17 Norte 0 -- -- 91
2021-01-06 00:00:00 1 4 Norte 10 Norte 0 -- -- 92
2021-01-05 23:00:00 1 3 Sudoeste 10 Norte 0 -- -- 90
2021-01-05 22:00:00 1.1 4 Norte 9 Norte 0 -- -- 92
2021-01-05 21:00:00 1.2 0 Calma 9 Noroeste 0 -- -- 90
2021-01-05 20:00:00 1.4 7 Norte 14 Noroeste 0 -- -- 89
2021-01-05 19:00:00 1.6 9 Norte 14 Nordeste 0 -- -- 91
2021-01-05 18:00:00 1.8 9 Norte 17 Norte 0 -- -- 92
2021-01-05 17:00:00 2.4 3 Norte 9 Noroeste 0 -- -- 89
2021-01-05 16:00:00 2.5 6 Norte 14 Norte 0 -- -- 89
2021-01-05 15:00:00 2.8 8 Norte 13 Nordeste 0 -- -- 89
2021-01-05 14:00:00 2.9 5 Norte 9 Norte 0 -- -- 93
2021-01-05 13:00:00 3 0 Calma 4 Norte 0 -- -- 97
2021-01-05 12:00:00 2.1 0 Calma 7 Norte 0 -- -- 99
2021-01-05 11:00:00 1.6 0 Calma 4 Sur 0 -- -- 99
2021-01-05 10:00:00 0.7 0 Calma 5 Norte 0 -- -- 99
2021-01-05 09:00:00 0.4 0 Calma 4 Oeste 0 -- -- 99
2021-01-05 08:00:00 0.3 0 Calma 3 Sur 0.2 -- -- 99
2021-01-05 07:00:00 0.2 0 Calma 3 Norte 0.8 -- -- 98
2021-01-05 06:00:00 0.5 0 Calma 6 Noroeste 0.6 -- -- 98
2021-01-05 05:00:00 0.9 6 Norte 13 Noroeste 0.4 -- -- 98
2021-01-05 04:00:00 1.4 0 Calma 4 Oeste 0 -- -- 98
2021-01-05 03:00:00 1.3 2 Oeste 4 Sudoeste 0 -- -- 98
2021-01-05 02:00:00 1.2 0 Calma 3 Sudoeste 0 -- -- 98
2021-01-05 01:00:00 1 2 Oeste 5 Sudoeste 0 -- -- 97
2021-01-05 00:00:00 0.9 0 Calma 5 Sudoeste 0 -- -- 97
2021-01-04 23:00:00 1.5 0 Calma 6 Sudoeste 0 -- -- 96
2021-01-04 22:00:00 1.6 4 Sur 7 Sur 0.4 -- -- 96
2021-01-04 21:00:00 1.8 0 Calma 4 Norte 0.2 -- -- 96
2021-01-04 20:00:00 1.7 0 Calma 8 Sur 0 -- -- 95
2021-01-04 19:00:00 1.8 3 Sudeste 5 Sur 0.6 -- -- 93
2021-01-04 18:00:00 2.6 4 Sudoeste 12 Sur 1 -- -- 88
2021-01-04 17:00:00 4.1 6 Sur 13 Sudoeste 0 -- -- 80
2021-01-04 16:00:00 3.5 4 Sur 11 Sur 0.4 -- -- 89
2021-01-04 15:00:00 3.6 2 Sudeste 24 Sur 0.4 -- -- 88
2021-01-04 14:00:00 4.5 8 Sur 31 Sur 0 -- -- 72
2021-01-04 13:00:00 4.8 13 Sur 25 Sur 0 -- -- 71
2021-01-04 12:00:00 3.9 9 Sur 36 Sur 0 -- -- 76
2021-01-04 11:00:00 3.2 9 Sur 31 Sur 0.2 -- -- 81
2021-01-04 10:00:00 2.5 5 Sur 19 Sur 0.2 -- -- 88
2021-01-04 09:00:00 2.3 10 Sur 27 Sudeste 0.2 -- -- 86
2021-01-04 08:00:00 2.4 5 Sur 31 Sudoeste 0 -- -- 84
2021-01-04 07:00:00 2.6 8 Sur 21 Sur 0 -- -- 80
2021-01-04 06:00:00 2.6 4 Sur 18 Sur 0 -- -- 83
2021-01-04 05:00:00 2.4 2 Sudoeste 17 Sudeste 0 -- -- 87
2021-01-04 04:00:00 2.7 6 Sur 13 Sur 0 -- -- 85
2021-01-04 03:00:00 2.7 4 Sudoeste 9 Sudeste 0.2 -- -- 88
2021-01-04 02:00:00 3.4 4 Sur 18 Sudoeste 0 -- -- 80
2021-01-04 01:00:00 2.5 5 Sur 15 Sur 0 -- -- 83
2021-01-04 00:00:00 2.7 7 Sur 13 Sur 0 -- -- 85
2021-01-03 23:00:00 2.4 6 Sur 12 Sur 0 -- -- 90
2021-01-03 22:00:00 2.9 9 Sur 17 Sudoeste 0 -- -- 90
2021-01-03 21:00:00 2.1 5 Sur 9 Sudoeste 0 -- -- 95
2021-01-03 20:00:00 2.9 3 Sur 8 Sur 0 -- -- 93
2021-01-03 19:00:00 3.7 2 Sur 11 Sudoeste 0.6 -- -- 90
2021-01-03 18:00:00 4.8 9 Sur 18 Sur 0.4 -- -- 80
2021-01-03 17:00:00 5.6 10 Sur 24 Sur 0 -- -- 75
2021-01-03 16:00:00 5.9 5 Sur 20 Sur 0 -- -- 76
2021-01-03 15:00:00 6.5 9 Sur 17 Sur 0 -- -- 73
2021-01-03 14:00:00 5.3 10 Norte 17 Norte 0 -- -- 79
2021-01-03 13:00:00 7.1 5 Sur 13 Sur 0 -- -- 69
2021-01-03 12:00:00 6.4 7 Sudeste 12 Sudeste 0 -- -- 73
2021-01-03 11:00:00 2.4 0 Calma 4 Norte 0 -- -- 94
2021-01-03 10:00:00 1 2 Sur 4 Oeste 0 -- -- 96
2021-01-03 09:00:00 0.3 0 Calma 4 Sudeste 0 -- -- 96
2021-01-03 08:00:00 0 2 Sudoeste 4 Sudoeste 0 -- -- 95
2021-01-03 07:00:00 -0.6 0 Calma 5 Sur 0 -- -- 95
2021-01-03 06:00:00 -0.8 3 Sur 5 Noroeste 0 -- -- 94
2021-01-03 05:00:00 -0.9 2 Norte 5 Sudoeste 0 -- -- 94
2021-01-03 04:00:00 -1 2 Sur 9 Sur 0 -- -- 93
2021-01-03 03:00:00 -1.4 0 Calma 7 Sur 0 -- -- 94
2021-01-03 02:00:00 -2 0 Calma 2 Sudeste 0 -- -- 95
2021-01-03 01:00:00 -2.3 0 Calma 3 Sudoeste 0 -- -- 93
2021-01-03 00:00:00 -1.7 0 Calma 4 Sudoeste 0 -- -- 92
2021-01-02 23:00:00 -0.8 0 Calma 10 Norte 0 -- -- 90
2021-01-02 22:00:00 0 9 Norte 21 Noroeste 0 -- -- 90
2021-01-02 21:00:00 -0.1 5 Norte 9 Norte 0 -- -- 94
2021-01-02 20:00:00 -0.1 3 Norte 13 Noroeste 0 -- -- 91
2021-01-02 19:00:00 0.2 4 Norte 11 Nordeste 0 -- -- 91
2021-01-02 18:00:00 0.9 4 Nordeste 13 Norte 0 -- -- 83
2021-01-02 17:00:00 1.4 4 Norte 14 Nordeste 0 -- -- 80
2021-01-02 16:00:00 1.8 8 Norte 22 Norte 0 -- -- 79
2021-01-02 15:00:00 2.6 8 Nordeste 17 Norte 0 -- -- 76
2021-01-02 14:00:00 1.7 12 Norte 17 Norte 0 -- -- 82